Private Wetterstation Sandau
Wetterdaten: Samstag, 21.04.2012
Datum Zeit Temp. A. Feuchte A. Luftdruck Regen Wind Richtung Richtung Taupunkt Windchill
21.04.2012 00:01 10,2 C 65 % 999,5 hPa 0,0 l/m 2,5 km/h (1 Bft) S 180 3,9 C 10,2 C
21.04.2012 00:06 10,1 C 65 % 999,4 hPa 0,0 l/m 1,4 km/h (1 Bft) S-SO 157 3,8 C 10,1 C
21.04.2012 00:11 10,1 C 65 % 999,5 hPa 0,0 l/m 3,2 km/h (1 Bft) S-SO 157 3,8 C 10,1 C
21.04.2012 00:16 9,9 C 65 % 999,4 hPa 0,0 l/m 4,3 km/h (1 Bft) SO 135 3,6 C 9,9 C
21.04.2012 00:21 9,9 C 65 % 999,6 hPa 0,0 l/m 4,7 km/h (1 Bft) S 180 3,6 C 9,7 C
21.04.2012 00:26 9,8 C 66 % 999,6 hPa 0,0 l/m 3,2 km/h (1 Bft) S-SO 157 3,8 C 9,8 C
21.04.2012 00:31 9,6 C 66 % 999,4 hPa 0,0 l/m 2,2 km/h (1 Bft) S-SO 157 3,6 C 9,6 C
21.04.2012 00:36 9,6 C 67 % 999,5 hPa 0,0 l/m 2,2 km/h (1 Bft) S-SO 157 3,8 C 9,6 C
21.04.2012 00:41 9,5 C 67 % 999,7 hPa 0,0 l/m 0,0 km/h (0 Bft) S-SO 157 3,7 C 9,5 C
21.04.2012 00:46 9,4 C 68 % 999,8 hPa 0,0 l/m 3,6 km/h (1 Bft) S-SO 157 3,8 C 9,4 C
21.04.2012 00:51 9,3 C 68 % 999,7 hPa 0,0 l/m 2,9 km/h (1 Bft) SW 225 3,7 C 9,3 C
21.04.2012 00:56 9,2 C 68 % 999,8 hPa 0,0 l/m 1,1 km/h (1 Bft) S-SW 202 3,6 C 9,2 C
21.04.2012 01:01 9,1 C 68 % 999,9 hPa 0,0 l/m 2,9 km/h (1 Bft) O-SO 112 3,5 C 9,1 C
21.04.2012 01:06 9,1 C 68 % 999,8 hPa 0,0 l/m 5,0 km/h (1 Bft) S-SO 157 3,5 C 8,7 C
21.04.2012 01:11 9,1 C 69 % 999,7 hPa 0,0 l/m 3,2 km/h (1 Bft) S-SO 157 3,7 C 9,1 C
21.04.2012 01:16 9,2 C 69 % 999,8 hPa 0,0 l/m 5,0 km/h (1 Bft) S 180 3,8 C 8,8 C
21.04.2012 01:21 9,3 C 69 % 999,8 hPa 0,0 l/m 4,3 km/h (1 Bft) S-SW 202 3,9 C 9,3 C
21.04.2012 01:26 9,3 C 69 % 999,8 hPa 0,0 l/m 1,8 km/h (1 Bft) S-SO 157 3,9 C 9,3 C
21.04.2012 01:31 9,4 C 69 % 999,7 hPa 0,0 l/m 3,2 km/h (1 Bft) S 180 4,0 C 9,4 C
21.04.2012 01:36 9,4 C 69 % 999,9 hPa 0,0 l/m 3,2 km/h (1 Bft) S 180 4,0 C 9,4 C
21.04.2012 01:41 9,4 C 69 % 999,8 hPa 0,0 l/m 2,5 km/h (1 Bft) S-SO 157 4,0 C 9,4 C
21.04.2012 01:46 9,5 C 70 % 1000,0 hPa 0,0 l/m 4,7 km/h (1 Bft) S-SW 202 4,3 C 9,3 C
21.04.2012 01:51 9,5 C 69 % 999,6 hPa 0,0 l/m 0,0 km/h (0 Bft) S 180 4,1 C 9,5 C
21.04.2012 01:56 9,5 C 69 % 999,7 hPa 0,0 l/m 3,6 km/h (1 Bft) S-SW 202 4,1 C 9,5 C
21.04.2012 02:01 9,6 C 69 % 999,8 hPa 0,0 l/m 1,8 km/h (1 Bft) S 180 4,2 C 9,6 C
21.04.2012 02:06 9,6 C 69 % 999,8 hPa 0,0 l/m 0,0 km/h (0 Bft) S-SW 202 4,2 C 9,6 C
21.04.2012 02:11 9,7 C 69 % 999,7 hPa 0,0 l/m 2,2 km/h (1 Bft) S-SW 202 4,3 C 9,7 C
21.04.2012 02:16 9,8 C 69 % 999,8 hPa 0,0 l/m 1,1 km/h (1 Bft) S-SW 202 4,4 C 9,8 C
21.04.2012 02:21 9,9 C 69 % 999,7 hPa 0,0 l/m 0,0 km/h (0 Bft) S-SW 202 4,5 C 9,9 C
21.04.2012 02:26 9,9 C 69 % 999,7 hPa 0,0 l/m 2,2 km/h (1 Bft) SW 225 4,5 C 9,9 C
21.04.2012 02:31 9,9 C 69 % 999,8 hPa 0,0 l/m 0,0 km/h (0 Bft) SW 225 4,5 C 9,9 C
21.04.2012 02:36 9,9 C 69 % 999,8 hPa 0,0 l/m 0,0 km/h (0 Bft) SW 225 4,5 C 9,9 C
21.04.2012 02:41 9,9 C 69 % 999,8 hPa 0,0 l/m 0,0 km/h (0 Bft) SW 225 4,5 C 9,9 C
21.04.2012 02:46 9,9 C 69 % 999,8 hPa 0,0 l/m 1,1 km/h (1 Bft) S 180 4,5 C 9,9 C
21.04.2012 02:51 9,9 C 69 % 999,7 hPa 0,0 l/m 0,0 km/h (0 Bft) S-SO 157 4,5 C 9,9 C
21.04.2012 02:56 9,8 C 70 % 999,8 hPa 0,0 l/m 0,0 km/h (0 Bft) S-SO 157 4,6 C 9,8 C
21.04.2012 03:01 9,8 C 70 % 999,9 hPa 0,0 l/m 0,0 km/h (0 Bft) S-SW 202 4,6 C 9,8 C
21.04.2012 03:06 9,7 C 70 % 999,8 hPa 0,0 l/m 2,2 km/h (1 Bft) SW 225 4,5 C 9,7 C
21.04.2012 03:11 9,7 C 70 % 999,9 hPa 0,0 l/m 0,0 km/h (0 Bft) SW 225 4,5 C 9,7 C
21.04.2012 03:16 9,7 C 70 % 999,9 hPa 0,0 l/m 0,0 km/h (0 Bft) S 180 4,5 C 9,7 C
21.04.2012 03:21 9,6 C 71 % 1000,0 hPa 0,0 l/m 1,8 km/h (1 Bft) S 180 4,6 C 9,6 C
21.04.2012 03:26 9,5 C 71 % 1000,0 hPa 0,0 l/m 0,0 km/h (0 Bft) S-SO 157 4,5 C 9,5 C
21.04.2012 03:31 9,5 C 71 % 1000,1 hPa 0,0 l/m 0,0 km/h (0 Bft) S-SO 157 4,5 C 9,5 C
21.04.2012 03:36 9,4 C 72 % 999,9 hPa 0,0 l/m 0,0 km/h (0 Bft) S-SO 157 4,6 C 9,4 C
21.04.2012 03:41 9,3 C 72 % 1000,0 hPa 0,0 l/m 0,0 km/h (0 Bft) S-SO 157 4,5 C 9,3 C
21.04.2012 03:46 9,3 C 72 % 1000,0 hPa 0,0 l/m 0,0 km/h (0 Bft) S-SO 157 4,5 C 9,3 C
21.04.2012 03:51 9,2 C 73 % 1000,0 hPa 0,0 l/m 0,0 km/h (0 Bft) S-SO 157 4,6 C 9,2 C
21.04.2012 03:56 9,2 C 73 % 999,9 hPa 0,0 l/m 0,0 km/h (0 Bft) S-SO 157 4,6 C 9,2 C
21.04.2012 04:01 9,1 C 73 % 1000,0 hPa 0,0 l/m 0,0 km/h (0 Bft) S-SO 157 4,5 C 9,1 C
21.04.2012 04:06 9,1 C 73 % 1000,1 hPa 0,0 l/m 1,1 km/h (1 Bft) S-SO 157 4,5 C 9,1 C
21.04.2012 04:11 9,1 C 73 % 1000,0 hPa 0,0 l/m 0,0 km/h (0 Bft) S-SO 157 4,5 C 9,1 C
21.04.2012 04:16 9,1 C 73 % 1000,1 hPa 0,0 l/m 0,0 km/h (0 Bft) S-SO 157 4,5 C 9,1 C
21.04.2012 04:21 9,1 C 73 % 1000,0 hPa 0,0 l/m 0,0 km/h (0 Bft) S 180 4,5 C 9,1 C
21.04.2012 04:26 9,1 C 73 % 999,9 hPa 0,0 l/m 0,0 km/h (0 Bft) S 180 4,5 C 9,1 C
21.04.2012 04:31 9,1 C 73 % 999,9 hPa 0,0 l/m 0,0 km/h (0 Bft) S-SO 157 4,5 C 9,1 C
21.04.2012 04:36 9,1 C 73 % 999,9 hPa 0,0 l/m 1,1 km/h (1 Bft) S-SO 157 4,5 C 9,1 C
21.04.2012 04:41 9,1 C 73 % 999,9 hPa 0,0 l/m 4,0 km/h (1 Bft) S 180 4,5 C 9,1 C
21.04.2012 04:46 9,1 C 73 % 999,8 hPa 0,0 l/m 2,5 km/h (1 Bft) S 180 4,5 C 9,1 C
21.04.2012 04:51 9,1 C 73 % 999,9 hPa 0,0 l/m 2,2 km/h (1 Bft) S-SO 157 4,5 C 9,1 C
21.04.2012 04:56 9,1 C 73 % 999,9 hPa 0,0 l/m 2,5 km/h (1 Bft) S-SW 202 4,5 C 9,1 C
21.04.2012 05:01 9,1 C 73 % 1000,0 hPa 0,0 l/m 2,2 km/h (1 Bft) S 180 4,5 C 9,1 C
21.04.2012 05:06 9,1 C 73 % 1000,1 hPa 0,0 l/m 4,3 km/h (1 Bft) S 180 4,5 C 9,1 C
21.04.2012 05:11 9,0 C 73 % 1000,1 hPa 0,0 l/m 1,8 km/h (1 Bft) S 180 4,4 C 9,0 C
21.04.2012 05:16 9,0 C 73 % 1000,0 hPa 0,0 l/m 0,0 km/h (0 Bft) S-SO 157 4,4 C 9,0 C
21.04.2012 05:21 8,9 C 73 % 1000,0 hPa 0,0 l/m 0,0 km/h (0 Bft) S 180 4,3 C 8,9 C
21.04.2012 05:26 8,9 C 73 % 1000,0 hPa 0,0 l/m 2,2 km/h (1 Bft) S-SO 157 4,3 C 8,9 C
21.04.2012 05:31 8,9 C 73 % 1000,0 hPa 0,0 l/m 4,0 km/h (1 Bft) S-SW 202 4,3 C 8,9 C
21.04.2012 05:36 8,9 C 73 % 1000,0 hPa 0,0 l/m 5,8 km/h (2 Bft) S 180 4,3 C 8,3 C
21.04.2012 05:41 8,8 C 73 % 1000,1 hPa 0,0 l/m 2,5 km/h (1 Bft) S-SW 202 4,2 C 8,8 C
21.04.2012 05:46 8,8 C 73 % 1000,1 hPa 0,0 l/m 0,0 km/h (0 Bft) S-SW 202 4,2 C 8,8 C
21.04.2012 05:51 8,7 C 73 % 1000,2 hPa 0,0 l/m 0,0 km/h (0 Bft) S 180 4,1 C 8,7 C
21.04.2012 05:56 8,6 C 73 % 1000,2 hPa 0,0 l/m 0,0 km/h (0 Bft) S 180 4,0 C 8,6 C
21.04.2012 06:01 8,5 C 74 % 1000,3 hPa 0,0 l/m 0,0 km/h (0 Bft) S 180 4,1 C 8,5 C
21.04.2012 06:06 8,4 C 74 % 1000,4 hPa 0,0 l/m 0,0 km/h (0 Bft) SO 135 4,0 C 8,4 C
21.04.2012 06:11 8,3 C 74 % 1000,4 hPa 0,0 l/m 0,0 km/h (0 Bft) S-SO 157 3,9 C 8,3 C
21.04.2012 06:16 8,2 C 74 % 1000,5 hPa 0,0 l/m 2,2 km/h (1 Bft) S 180 3,8 C 8,2 C
21.04.2012 06:21 8,1 C 75 % 1000,4 hPa 0,0 l/m 1,4 km/h (1 Bft) S-SO 157 3,9 C 8,1 C
21.04.2012 06:26 7,9 C 75 % 1000,3 hPa 0,0 l/m 2,2 km/h (1 Bft) S-SO 157 3,7 C 7,9 C
21.04.2012 06:31 7,9 C 75 % 1000,3 hPa 0,0 l/m 1,8 km/h (1 Bft) SO 135 3,7 C 7,9 C
21.04.2012 06:36 7,8 C 76 % 1000,4 hPa 0,0 l/m 1,4 km/h (1 Bft) SO 135 3,8 C 7,8 C
21.04.2012 06:41 7,8 C 76 % 1000,5 hPa 0,0 l/m 2,5 km/h (1 Bft) S 180 3,8 C 7,8 C
21.04.2012 06:46 7,9 C 76 % 1000,5 hPa 0,0 l/m 2,9 km/h (1 Bft) S-SW 202 3,9 C 7,9 C
21.04.2012 06:51 8,1 C 76 % 1000,6 hPa 0,0 l/m 1,8 km/h (1 Bft) S-SO 157 4,1 C 8,1 C
21.04.2012 06:56 8,4 C 76 % 1000,7 hPa 0,0 l/m 0,0 km/h (0 Bft) S-SO 157 4,4 C 8,4 C
21.04.2012 07:01 8,6 C 76 % 1000,7 hPa 0,0 l/m 3,6 km/h (1 Bft) SO 135 4,6 C 8,6 C
21.04.2012 07:06 8,8 C 75 % 1000,7 hPa 0,0 l/m 0,0 km/h (0 Bft) S 180 4,6 C 8,8 C
21.04.2012 07:11 8,9 C 74 % 1000,7 hPa 0,0 l/m 3,6 km/h (1 Bft) S-SW 202 4,5 C 8,9 C
21.04.2012 07:16 9,1 C 74 % 1000,8 hPa 0,0 l/m 4,0 km/h (1 Bft) S-SW 202 4,7 C 9,1 C
21.04.2012 07:21 9,3 C 74 % 1000,9 hPa 0,0 l/m 1,8 km/h (1 Bft) S-SO 157 4,9 C 9,3 C
21.04.2012 07:26 9,4 C 74 % 1000,9 hPa 0,0 l/m 2,5 km/h (1 Bft) S-SO 157 5,0 C 9,4 C
21.04.2012 07:31 9,5 C 73 % 1001,0 hPa 0,0 l/m 4,7 km/h (1 Bft) S-SW 202 4,9 C 9,3 C
21.04.2012 07:36 9,7 C 73 % 1001,1 hPa 0,0 l/m 5,0 km/h (1 Bft) S 180 5,1 C 9,4 C
21.04.2012 07:41 9,8 C 74 % 1001,1 hPa 0,0 l/m 6,1 km/h (2 Bft) S-SO 157 5,4 C 9,2 C
21.04.2012 07:46 9,9 C 73 % 1001,1 hPa 0,0 l/m 7,2 km/h (2 Bft) S 180 5,3 C 9,1 C
21.04.2012 07:51 9,9 C 73 % 1001,2 hPa 0,0 l/m 7,6 km/h (2 Bft) S 180 5,3 C 9,0 C
21.04.2012 07:56 10,1 C 73 % 1001,1 hPa 0,0 l/m 6,1 km/h (2 Bft) S-SO 157 5,5 C 10,1 C
21.04.2012 08:01 10,2 C 73 % 1001,1 hPa 0,0 l/m 3,2 km/h (1 Bft) S-SO 157 5,6 C 10,2 C
21.04.2012 08:06 10,3 C 73 % 1001,1 hPa 0,0 l/m 5,0 km/h (1 Bft) S-SO 157 5,7 C 10,3 C
21.04.2012 08:11 10,5 C 72 % 1001,0 hPa 0,0 l/m 5,8 km/h (2 Bft) S-SW 202 5,7 C 10,5 C
21.04.2012 08:16 10,6 C 72 % 1001,1 hPa 0,0 l/m 9,7 km/h (2 Bft) S 180 5,8 C 10,6 C
21.04.2012 08:21 10,8 C 71 % 1001,2 hPa 0,0 l/m 7,6 km/h (2 Bft) S-SO 157 5,8 C 10,8 C
21.04.2012 08:26 10,9 C 70 % 1001,2 hPa 0,0 l/m 6,1 km/h (2 Bft) S-SW 202 5,6 C 10,9 C
21.04.2012 08:31 11,1 C 70 % 1001,2 hPa 0,0 l/m 6,5 km/h (2 Bft) S 180 5,8 C 11,1 C
21.04.2012 08:36 11,1 C 69 % 1001,3 hPa 0,0 l/m 4,0 km/h (1 Bft) S-SW 202 5,6 C 11,1 C
21.04.2012 08:41 11,2 C 69 % 1001,1 hPa 0,0 l/m 10,4 km/h (2 Bft) S-SW 202 5,7 C 11,2 C
21.04.2012 08:46 11,3 C 68 % 1001,3 hPa 0,0 l/m 6,8 km/h (2 Bft) S-SW 202 5,6 C 11,3 C
21.04.2012 08:51 11,3 C 68 % 1001,2 hPa 0,0 l/m 8,3 km/h (2 Bft) SW 225 5,6 C 11,3 C
21.04.2012 08:56 11,5 C 67 % 1001,3 hPa 0,0 l/m 5,0 km/h (1 Bft) SW 225 5,6 C 11,5 C
21.04.2012 09:01 11,6 C 67 % 1001,5 hPa 0,0 l/m 5,4 km/h (1 Bft) W-SW 247 5,7 C 11,6 C
21.04.2012 09:06 11,8 C 67 % 1001,4 hPa 0,0 l/m 5,0 km/h (1 Bft) S-SW 202 5,9 C 11,8 C
21.04.2012 09:11 11,9 C 66 % 1001,4 hPa 0,0 l/m 1,8 km/h (1 Bft) S-SO 157 5,8 C 11,9 C
21.04.2012 09:16 12,1 C 66 % 1001,4 hPa 0,0 l/m 2,2 km/h (1 Bft) SW 225 5,9 C 12,1 C
21.04.2012 09:21 12,1 C 66 % 1001,3 hPa 0,0 l/m 4,3 km/h (1 Bft) S-SO 157 5,9 C 12,1 C
21.04.2012 09:26 12,2 C 65 % 1001,5 hPa 0,0 l/m 7,6 km/h (2 Bft) SO 135 5,8 C 12,2 C
21.04.2012 09:31 12,4 C 65 % 1001,4 hPa 0,0 l/m 4,0 km/h (1 Bft) S-SO 157 6,0 C 12,4 C
21.04.2012 09:36 12,5 C 65 % 1001,6 hPa 0,0 l/m 2,5 km/h (1 Bft) S 180 6,1 C 12,5 C
21.04.2012 09:41 12,8 C 64 % 1001,6 hPa 0,0 l/m 8,3 km/h (2 Bft) SW 225 6,2 C 12,8 C
21.04.2012 09:46 12,9 C 64 % 1001,5 hPa 0,0 l/m 8,3 km/h (2 Bft) SO 135 6,3 C 12,9 C
21.04.2012 09:51 12,9 C 63 % 1001,5 hPa 0,0 l/m 9,0 km/h (2 Bft) O-SO 112 6,0 C 12,9 C
21.04.2012 09:56 13,1 C 63 % 1001,5 hPa 0,0 l/m 4,0 km/h (1 Bft) SW 225 6,2 C 13,1 C
21.04.2012 10:01 13,3 C 62 % 1001,4 hPa 0,0 l/m 7,6 km/h (2 Bft) S-SW 202 6,2 C 13,3 C
21.04.2012 10:06 13,3 C 61 % 1001,5 hPa 0,0 l/m 4,7 km/h (1 Bft) S-SW 202 5,9 C 13,3 C
21.04.2012 10:11 13,1 C 62 % 1001,5 hPa 0,0 l/m 14,4 km/h (3 Bft) SW 225 6,0 C 13,1 C
21.04.2012 10:16 13,1 C 61 % 1001,6 hPa 0,0 l/m 10,1 km/h (2 Bft) W 270 5,8 C 13,1 C
21.04.2012 10:21 13,1 C 61 % 1001,5 hPa 0,0 l/m 7,2 km/h (2 Bft) S 180 5,8 C 13,1 C
21.04.2012 10:26 13,1 C 61 % 1001,5 hPa 0,0 l/m 7,6 km/h (2 Bft) S 180 5,8 C 13,1 C
21.04.2012 10:31 13,3 C 61 % 1001,5 hPa 0,0 l/m 11,9 km/h (2 Bft) S-SW 202 5,9 C 13,3 C
21.04.2012 10:36 13,4 C 60 % 1001,6 hPa 0,0 l/m 13,0 km/h (3 Bft) W-SW 247 5,8 C 13,4 C
21.04.2012 10:41 13,4 C 60 % 1001,5 hPa 0,0 l/m 14,4 km/h (3 Bft) SW 225 5,8 C 13,4 C
21.04.2012 10:46 13,5 C 59 % 1001,5 hPa 0,0 l/m 8,3 km/h (2 Bft) S 180 5,6 C 13,5 C
21.04.2012 10:51 13,6 C 59 % 1001,6 hPa 0,0 l/m 16,6 km/h (3 Bft) S-SO 157 5,7 C 13,6 C
21.04.2012 10:56 13,8 C 58 % 1001,6 hPa 0,0 l/m 6,1 km/h (2 Bft) S-SO 157 5,7 C 13,8 C
21.04.2012 11:01 13,9 C 58 % 1001,5 hPa 0,0 l/m 2,5 km/h (1 Bft) NW 315 5,8 C 13,9 C
21.04.2012 11:06 14,0 C 58 % 1001,5 hPa 0,0 l/m 7,6 km/h (2 Bft) S-SO 157 5,9 C 14,0 C
21.04.2012 11:11 14,1 C 57 % 1001,5 hPa 0,0 l/m 9,0 km/h (2 Bft) SO 135 5,7 C 14,1 C
21.04.2012 11:16 14,2 C 57 % 1001,6 hPa 0,0 l/m 14,4 km/h (3 Bft) SW 225 5,8 C 14,2 C
21.04.2012 11:21 14,4 C 56 % 1001,6 hPa 0,0 l/m 21,6 km/h (4 Bft) S-SO 157 5,7 C 14,4 C
21.04.2012 11:26 14,4 C 55 % 1001,6 hPa 0,0 l/m 22,7 km/h (4 Bft) S-SW 202 5,5 C 14,4 C
21.04.2012 11:31 14,6 C 55 % 1001,6 hPa 0,0 l/m 7,6 km/h (2 Bft) S-SO 157 5,7 C 14,6 C
21.04.2012 11:36 14,8 C 54 % 1001,5 hPa 0,0 l/m 15,1 km/h (3 Bft) S 180 5,6 C 14,8 C
21.04.2012 11:41 14,9 C 53 % 1001,4 hPa 0,0 l/m 19,4 km/h (3 Bft) S 180 5,4 C 14,9 C
21.04.2012 11:46 14,9 C 53 % 1001,4 hPa 0,0 l/m 15,5 km/h (3 Bft) SO 135 5,4 C 14,9 C
21.04.2012 11:51 14,9 C 53 % 1001,5 hPa 0,0 l/m 5,8 km/h (2 Bft) SO 135 5,4 C 14,9 C
21.04.2012 11:56 15,2 C 53 % 1001,3 hPa 0,0 l/m 8,6 km/h (2 Bft) S-SO 157 5,7 C 15,2 C
21.04.2012 12:01 15,4 C 52 % 1001,5 hPa 0,0 l/m 16,9 km/h (3 Bft) S 180 5,6 C 15,4 C
21.04.2012 12:06 15,5 C 51 % 1001,3 hPa 0,0 l/m 9,7 km/h (2 Bft) O 90 5,4 C 15,5 C
21.04.2012 12:11 15,6 C 51 % 1001,4 hPa 0,0 l/m 5,0 km/h (1 Bft) W-SW 247 5,5 C 15,6 C
21.04.2012 12:16 15,8 C 50 % 1001,4 hPa 0,0 l/m 8,6 km/h (2 Bft) S-SO 157 5,4 C 15,8 C
21.04.2012 12:21 15,9 C 49 % 1001,5 hPa 0,0 l/m 5,8 km/h (2 Bft) SO 135 5,2 C 15,9 C
21.04.2012 12:26 16,1 C 49 % 1001,5 hPa 0,0 l/m 14,4 km/h (3 Bft) S-SW 202 5,4 C 16,1 C
21.04.2012 12:31 16,2 C 48 % 1001,5 hPa 0,0 l/m 8,6 km/h (2 Bft) W-SW 247 5,2 C 16,2 C
21.04.2012 12:36 16,3 C 48 % 1001,5 hPa 0,0 l/m 9,7 km/h (2 Bft) S-SO 157 5,3 C 16,3 C
21.04.2012 12:41 16,2 C 48 % 1001,3 hPa 0,0 l/m 10,1 km/h (2 Bft) S-SO 157 5,2 C 16,2 C
21.04.2012 12:46 16,1 C 48 % 1001,3 hPa 0,0 l/m 10,1 km/h (2 Bft) W-SW 247 5,1 C 16,1 C
21.04.2012 12:51 16,3 C 47 % 1001,2 hPa 0,0 l/m 14,4 km/h (3 Bft) O-SO 112 5,0 C 16,3 C
21.04.2012 12:56 16,5 C 47 % 1001,3 hPa 0,0 l/m 6,1 km/h (2 Bft) S-SO 157 5,2 C 16,5 C
21.04.2012 13:01 16,5 C 46 % 1001,3 hPa 0,0 l/m 22,0 km/h (4 Bft) S-SO 157 4,8 C 16,5 C
21.04.2012 13:06 16,5 C 45 % 1001,3 hPa 0,0 l/m 14,8 km/h (3 Bft) S-SW 202 4,5 C 16,5 C
21.04.2012 13:11 16,6 C 45 % 1001,4 hPa 0,0 l/m 12,2 km/h (2 Bft) S-SW 202 4,6 C 16,6 C
21.04.2012 13:16 16,6 C 45 % 1001,3 hPa 0,0 l/m 10,8 km/h (2 Bft) W-SW 247 4,6 C 16,6 C
21.04.2012 13:21 16,7 C 45 % 1001,4 hPa 0,0 l/m 18,4 km/h (3 Bft) SW 225 4,7 C 16,7 C
21.04.2012 13:26 16,9 C 44 % 1001,4 hPa 0,0 l/m 16,2 km/h (3 Bft) S-SW 202 4,6 C 16,9 C
21.04.2012 13:31 17,1 C 44 % 1001,2 hPa 0,0 l/m 7,9 km/h (2 Bft) S-SO 157 4,8 C 17,1 C
21.04.2012 13:36 17,3 C 44 % 1001,3 hPa 0,0 l/m 9,4 km/h (2 Bft) S 180 4,9 C 17,3 C
21.04.2012 13:41 17,3 C 43 % 1001,3 hPa 0,0 l/m 12,6 km/h (3 Bft) S 180 4,6 C 17,3 C
21.04.2012 13:46 17,1 C 43 % 1001,4 hPa 0,0 l/m 10,4 km/h (2 Bft) W-SW 247 4,4 C 17,1 C
21.04.2012 13:51 16,7 C 43 % 1001,2 hPa 0,0 l/m 10,1 km/h (2 Bft) S-SO 157 4,1 C 16,7 C
21.04.2012 13:56 16,4 C 44 % 1001,2 hPa 0,0 l/m 13,7 km/h (3 Bft) W-SW 247 4,1 C 16,4 C
21.04.2012 14:01 16,6 C 44 % 1001,1 hPa 0,0 l/m 5,8 km/h (2 Bft) W 270 4,3 C 16,6 C
21.04.2012 14:06 16,9 C 44 % 1001,1 hPa 0,0 l/m 18,0 km/h (3 Bft) S-SW 202 4,6 C 16,9 C
21.04.2012 14:11 17,3 C 44 % 1001,2 hPa 0,0 l/m 17,3 km/h (3 Bft) S-SW 202 4,9 C 17,3 C
21.04.2012 14:16 17,3 C 44 % 1001,1 hPa 0,0 l/m 25,2 km/h (4 Bft) S 180 4,9 C 17,3 C
21.04.2012 14:21 17,5 C 43 % 1001,1 hPa 0,0 l/m 6,1 km/h (2 Bft) S 180 4,8 C 17,5 C
21.04.2012 14:26 17,6 C 42 % 1001,1 hPa 0,0 l/m 11,9 km/h (2 Bft) S-SO 157 4,5 C 17,6 C
21.04.2012 14:31 17,8 C 42 % 1001,2 hPa 0,0 l/m 23,4 km/h (4 Bft) SW 225 4,7 C 17,8 C
21.04.2012 14:36 17,9 C 41 % 1001,2 hPa 0,0 l/m 11,9 km/h (2 Bft) S-SW 202 4,5 C 17,9 C
21.04.2012 14:41 18,1 C 41 % 1001,1 hPa 0,0 l/m 13,7 km/h (3 Bft) W-SW 247 4,6 C 18,1 C
21.04.2012 14:46 18,2 C 41 % 1001,0 hPa 0,0 l/m 16,6 km/h (3 Bft) SW 225 4,7 C 18,2 C
21.04.2012 14:51 18,4 C 41 % 1001,0 hPa 0,0 l/m 18,7 km/h (3 Bft) SO 135 4,9 C 18,4 C
21.04.2012 14:56 18,5 C 41 % 1001,0 hPa 0,0 l/m 8,3 km/h (2 Bft) SO 135 5,0 C 18,5 C
21.04.2012 15:01 18,4 C 41 % 1001,1 hPa 0,0 l/m 10,4 km/h (2 Bft) S-SO 157 4,9 C 18,4 C
21.04.2012 15:06 17,9 C 41 % 1001,1 hPa 0,0 l/m 10,4 km/h (2 Bft) S-SO 157 4,5 C 17,9 C
21.04.2012 15:11 17,4 C 41 % 1000,9 hPa 0,0 l/m 6,1 km/h (2 Bft) S 180 4,0 C 17,4 C
21.04.2012 15:16 17,6 C 41 % 1001,0 hPa 0,0 l/m 16,2 km/h (3 Bft) SO 135 4,2 C 17,6 C
21.04.2012 15:21 17,7 C 41 % 1001,0 hPa 0,0 l/m 10,4 km/h (2 Bft) SW 225 4,3 C 17,7 C
21.04.2012 15:26 17,8 C 41 % 1000,9 hPa 0,0 l/m 9,7 km/h (2 Bft) W-SW 247 4,4 C 17,8 C
21.04.2012 15:31 17,8 C 41 % 1000,9 hPa 0,0 l/m 10,1 km/h (2 Bft) S 180 4,4 C 17,8 C
21.04.2012 15:36 17,9 C 41 % 1001,0 hPa 0,0 l/m 14,8 km/h (3 Bft) S-SW 202 4,5 C 17,9 C
21.04.2012 15:41 17,9 C 41 % 1001,0 hPa 0,0 l/m 7,9 km/h (2 Bft) S-SO 157 4,5 C 17,9 C
21.04.2012 15:46 17,7 C 41 % 1000,9 hPa 0,0 l/m 11,9 km/h (2 Bft) S-SW 202 4,3 C 17,7 C
21.04.2012 15:51 17,5 C 41 % 1000,8 hPa 0,0 l/m 14,8 km/h (3 Bft) S 180 4,1 C 17,5 C
21.04.2012 15:56 17,5 C 42 % 1000,9 hPa 0,0 l/m 15,5 km/h (3 Bft) SO 135 4,4 C 17,5 C
21.04.2012 16:01 17,5 C 42 % 1000,8 hPa 0,0 l/m 19,1 km/h (3 Bft) S-SW 202 4,4 C 17,5 C
21.04.2012 16:06 17,6 C 42 % 1001,0 hPa 0,0 l/m 2,9 km/h (1 Bft) SW 225 4,5 C 17,6 C
21.04.2012 16:11 17,9 C 41 % 1000,8 hPa 0,0 l/m 16,6 km/h (3 Bft) S 180 4,5 C 17,9 C
21.04.2012 16:16 17,8 C 41 % 1001,0 hPa 0,0 l/m 13,7 km/h (3 Bft) S-SW 202 4,4 C 17,8 C
21.04.2012 16:21 17,3 C 41 % 1000,9 hPa 0,0 l/m 14,8 km/h (3 Bft) S-SO 157 3,9 C 17,3 C
21.04.2012 16:26 17,1 C 41 % 1000,8 hPa 0,0 l/m 15,5 km/h (3 Bft) S 180 3,7 C 17,1 C
21.04.2012 16:31 17,2 C 42 % 1001,0 hPa 0,0 l/m 14,0 km/h (3 Bft) S-SW 202 4,2 C 17,2 C
21.04.2012 16:36 17,4 C 42 % 1001,0 hPa 0,0 l/m 8,3 km/h (2 Bft) SW 225 4,4 C 17,4 C
21.04.2012 16:41 17,3 C 42 % 1000,7 hPa 0,0 l/m 14,4 km/h (3 Bft) W-SW 247 4,3 C 17,3 C
21.04.2012 16:46 17,2 C 42 % 1000,7 hPa 0,0 l/m 9,7 km/h (2 Bft) SW 225 4,2 C 17,2 C
21.04.2012 16:51 17,1 C 43 % 1000,7 hPa 0,0 l/m 5,8 km/h (2 Bft) S-SO 157 4,4 C 17,1 C
21.04.2012 16:56 16,9 C 44 % 1000,7 hPa 0,0 l/m 8,3 km/h (2 Bft) S-SW 202 4,6 C 16,9 C
21.04.2012 17:01 17,1 C 43 % 1000,8 hPa 0,0 l/m 13,0 km/h (3 Bft) S 180 4,4 C 17,1 C
21.04.2012 17:06 17,3 C 42 % 1000,7 hPa 0,0 l/m 14,4 km/h (3 Bft) S 180 4,3 C 17,3 C
21.04.2012 17:11 17,1 C 42 % 1000,8 hPa 0,0 l/m 13,0 km/h (3 Bft) S-SO 157 4,1 C 17,1 C
21.04.2012 17:16 16,9 C 42 % 1000,8 hPa 0,0 l/m 5,4 km/h (1 Bft) W-SW 247 3,9 C 16,9 C
21.04.2012 17:21 16,8 C 42 % 1000,8 hPa 0,0 l/m 12,6 km/h (3 Bft) S-SO 157 3,8 C 16,8 C
21.04.2012 17:26 16,8 C 43 % 1000,6 hPa 0,0 l/m 11,5 km/h (2 Bft) S-SW 202 4,2 C 16,8 C
21.04.2012 17:31 16,9 C 42 % 1000,6 hPa 0,0 l/m 8,3 km/h (2 Bft) S 180 3,9 C 16,9 C
21.04.2012 17:36 16,9 C 42 % 1000,8 hPa 0,0 l/m 14,4 km/h (3 Bft) S-SO 157 3,9 C 16,9 C
21.04.2012 17:41 16,6 C 42 % 1000,7 hPa 0,0 l/m 16,6 km/h (3 Bft) S-SO 157 3,6 C 16,6 C
21.04.2012 17:46 16,4 C 43 % 1000,7 hPa 0,0 l/m 9,4 km/h (2 Bft) SO 135 3,8 C 16,4 C
21.04.2012 17:51 16,1 C 43 % 1000,8 hPa 0,0 l/m 12,6 km/h (3 Bft) S 180 3,5 C 16,1 C
21.04.2012 17:56 15,9 C 43 % 1000,8 hPa 0,0 l/m 11,2 km/h (2 Bft) O-SO 112 3,3 C 15,9 C
21.04.2012 18:01 15,7 C 44 % 1000,8 hPa 0,0 l/m 20,9 km/h (4 Bft) S-SW 202 3,5 C 15,7 C
21.04.2012 18:06 15,3 C 45 % 1000,7 hPa 0,0 l/m 19,4 km/h (3 Bft) W-SW 247 3,4 C 15,3 C
21.04.2012 18:11 15,1 C 45 % 1000,7 hPa 0,0 l/m 4,3 km/h (1 Bft) W-SW 247 3,3 C 15,1 C
21.04.2012 18:16 14,9 C 46 % 1000,6 hPa 0,0 l/m 6,8 km/h (2 Bft) W-SW 247 3,4 C 14,9 C
21.04.2012 18:21 14,9 C 46 % 1000,8 hPa 0,0 l/m 13,3 km/h (3 Bft) S-SO 157 3,4 C 14,9 C
21.04.2012 18:26 14,9 C 46 % 1000,8 hPa 0,0 l/m 10,8 km/h (2 Bft) S-SW 202 3,4 C 14,9 C
21.04.2012 18:31 14,9 C 46 % 1000,9 hPa 0,0 l/m 6,1 km/h (2 Bft) S-SO 157 3,4 C 14,9 C
21.04.2012 18:36 14,9 C 46 % 1000,9 hPa 0,0 l/m 8,3 km/h (2 Bft) SW 225 3,4 C 14,9 C
21.04.2012 18:41 14,8 C 46 % 1000,8 hPa 0,0 l/m 10,1 km/h (2 Bft) S-SO 157 3,3 C 14,8 C
21.04.2012 18:46 14,6 C 46 % 1001,0 hPa 0,0 l/m 12,2 km/h (2 Bft) S 180 3,1 C 14,6 C
21.04.2012 18:51 14,5 C 47 % 1000,9 hPa 0,0 l/m 19,4 km/h (3 Bft) S-SW 202 3,3 C 14,5 C
21.04.2012 18:56 14,4 C 48 % 1000,9 hPa 0,0 l/m 22,3 km/h (4 Bft) S-SW 202 3,5 C 14,4 C
21.04.2012 19:01 14,3 C 48 % 1001,0 hPa 0,0 l/m 7,2 km/h (2 Bft) W-SW 247 3,4 C 14,3 C
21.04.2012 19:06 14,2 C 48 % 1001,1 hPa 0,0 l/m 9,0 km/h (2 Bft) S-SO 157 3,4 C 14,2 C
21.04.2012 19:11 14,1 C 49 % 1001,2 hPa 0,0 l/m 16,6 km/h (3 Bft) S-SW 202 3,6 C 14,1 C
21.04.2012 19:16 13,9 C 49 % 1001,2 hPa 0,0 l/m 19,8 km/h (3 Bft) S-SW 202 3,4 C 13,9 C
21.04.2012 19:21 13,9 C 49 % 1001,3 hPa 0,0 l/m 5,8 km/h (2 Bft) W-SW 247 3,4 C 13,9 C
21.04.2012 19:26 13,8 C 50 % 1001,3 hPa 0,0 l/m 10,1 km/h (2 Bft) SW 225 3,6 C 13,8 C
21.04.2012 19:31 13,7 C 50 % 1001,4 hPa 0,0 l/m 11,2 km/h (2 Bft) S-SW 202 3,5 C 13,7 C
21.04.2012 19:36 13,6 C 50 % 1001,4 hPa 0,0 l/m 10,8 km/h (2 Bft) S-SO 157 3,4 C 13,6 C
21.04.2012 19:41 13,5 C 51 % 1001,4 hPa 0,0 l/m 15,5 km/h (3 Bft) S 180 3,6 C 13,5 C
21.04.2012 19:46 13,4 C 51 % 1001,4 hPa 0,0 l/m 12,2 km/h (2 Bft) SW 225 3,5 C 13,4 C
21.04.2012 19:51 13,4 C 51 % 1001,4 hPa 0,0 l/m 7,2 km/h (2 Bft) W-SW 247 3,5 C 13,4 C
21.04.2012 19:56 13,4 C 52 % 1001,5 hPa 0,0 l/m 4,7 km/h (1 Bft) S 180 3,7 C 13,4 C
21.04.2012 20:01 13,3 C 51 % 1001,6 hPa 0,0 l/m 7,2 km/h (2 Bft) S-SW 202 3,4 C 13,3 C
21.04.2012 20:06 13,2 C 52 % 1001,6 hPa 0,0 l/m 1,8 km/h (1 Bft) S 180 3,6 C 13,2 C
21.04.2012 20:11 13,1 C 52 % 1001,5 hPa 0,0 l/m 4,0 km/h (1 Bft) S 180 3,5 C 13,1 C
21.04.2012 20:16 13,1 C 52 % 1001,6 hPa 0,0 l/m 0,0 km/h (0 Bft) S-SO 157 3,5 C 13,1 C
21.04.2012 20:21 13,0 C 53 % 1001,5 hPa 0,0 l/m 5,0 km/h (1 Bft) S 180 3,6 C 13,0 C
21.04.2012 20:26 12,9 C 53 % 1001,6 hPa 0,0 l/m 1,1 km/h (1 Bft) S 180 3,6 C 12,9 C
21.04.2012 20:31 12,9 C 53 % 1001,6 hPa 0,0 l/m 2,2 km/h (1 Bft) SW 225 3,6 C 12,9 C
21.04.2012 20:36 12,8 C 53 % 1001,7 hPa 0,0 l/m 3,6 km/h (1 Bft) S 180 3,5 C 12,8 C
21.04.2012 20:41 12,7 C 54 % 1001,8 hPa 0,0 l/m 1,4 km/h (1 Bft) S 180 3,6 C 12,7 C
21.04.2012 20:46 12,6 C 54 % 1001,9 hPa 0,0 l/m 3,6 km/h (1 Bft) S-SW 202 3,5 C 12,6 C
21.04.2012 20:51 12,6 C 54 % 1002,0 hPa 0,0 l/m 0,0 km/h (0 Bft) S-SW 202 3,5 C 12,6 C
21.04.2012 20:56 12,5 C 54 % 1002,1 hPa 0,0 l/m 1,4 km/h (1 Bft) S 180 3,5 C 12,5 C
21.04.2012 21:01 12,5 C 55 % 1002,0 hPa 0,0 l/m 0,0 km/h (0 Bft) S 180 3,7 C 12,5 C
21.04.2012 21:06 12,4 C 55 % 1002,0 hPa 0,0 l/m 1,4 km/h (1 Bft) S 180 3,6 C 12,4 C
21.04.2012 21:11 12,4 C 55 % 1001,9 hPa 0,0 l/m 1,4 km/h (1 Bft) S 180 3,6 C 12,4 C
21.04.2012 21:16 12,4 C 56 % 1002,2 hPa 0,0 l/m 5,8 km/h (2 Bft) W-NW 292 3,9 C 12,4 C
21.04.2012 21:21 12,2 C 57 % 1002,0 hPa 0,0 l/m 7,6 km/h (2 Bft) W 270 3,9 C 12,2 C
21.04.2012 21:26 11,9 C 58 % 1002,2 hPa 0,0 l/m 8,3 km/h (2 Bft) W-SW 247 3,9 C 11,9 C
21.04.2012 21:31 11,8 C 60 % 1002,0 hPa 0,0 l/m 6,5 km/h (2 Bft) W 270 4,3 C 11,8 C
21.04.2012 21:36 11,5 C 61 % 1002,2 hPa 0,0 l/m 6,5 km/h (2 Bft) W-SW 247 4,2 C 11,5 C
21.04.2012 21:41 11,2 C 62 % 1002,1 hPa 0,0 l/m 6,8 km/h (2 Bft) W-NW 292 4,2 C 11,2 C
21.04.2012 21:46 11,0 C 63 % 1002,2 hPa 0,0 l/m 6,5 km/h (2 Bft) W 270 4,2 C 11,0 C
21.04.2012 21:51 10,9 C 64 % 1002,3 hPa 0,0 l/m 4,0 km/h (1 Bft) W-NW 292 4,4 C 10,9 C
21.04.2012 21:56 10,8 C 65 % 1002,3 hPa 0,0 l/m 2,5 km/h (1 Bft) W-NW 292 4,5 C 10,8 C
21.04.2012 22:01 10,6 C 65 % 1002,3 hPa 0,0 l/m 3,2 km/h (1 Bft) W-NW 292 4,3 C 10,6 C
21.04.2012 22:06 10,6 C 66 % 1002,3 hPa 0,0 l/m 1,4 km/h (1 Bft) W-NW 292 4,5 C 10,6 C
21.04.2012 22:11 10,5 C 66 % 1002,2 hPa 0,0 l/m 0,0 km/h (0 Bft) W 270 4,4 C 10,5 C
21.04.2012 22:16 10,4 C 67 % 1002,1 hPa 0,0 l/m 0,0 km/h (0 Bft) NW 315 4,5 C 10,4 C
21.04.2012 22:21 10,2 C 67 % 1002,0 hPa 0,0 l/m 0,0 km/h (0 Bft) NW 315 4,4 C 10,2 C
21.04.2012 22:26 10,1 C 68 % 1002,2 hPa 0,0 l/m 0,0 km/h (0 Bft) NW 315 4,5 C 10,1 C
21.04.2012 22:31 10,2 C 68 % 1002,2 hPa 0,0 l/m 0,0 km/h (0 Bft) W-NW 292 4,6 C 10,2 C
21.04.2012 22:36 10,2 C 68 % 1002,0 hPa 0,0 l/m 0,0 km/h (0 Bft) W-NW 292 4,6 C 10,2 C
21.04.2012 22:41 10,1 C 68 % 1002,1 hPa 0,0 l/m 0,0 km/h (0 Bft) W-NW 292 4,5 C 10,1 C
21.04.2012 22:46 9,9 C 68 % 1002,2 hPa 0,0 l/m 0,0 km/h (0 Bft) W-NW 292 4,3 C 9,9 C
21.04.2012 22:51 9,9 C 69 % 1002,2 hPa 0,0 l/m 0,0 km/h (0 Bft) W-SW 247 4,5 C 9,9 C
21.04.2012 22:56 9,8 C 69 % 1002,4 hPa 0,0 l/m 0,0 km/h (0 Bft) W-SW 247 4,4 C 9,8 C
21.04.2012 23:01 9,8 C 69 % 1002,3 hPa 0,0 l/m 0,0 km/h (0 Bft) W-SW 247 4,4 C 9,8 C
21.04.2012 23:06 9,8 C 68 % 1002,2 hPa 0,0 l/m 0,0 km/h (0 Bft) W-SW 247 4,2 C 9,8 C
21.04.2012 23:11 9,8 C 69 % 1002,3 hPa 0,0 l/m 0,0 km/h (0 Bft) W 270 4,4 C 9,8 C
21.04.2012 23:16 9,6 C 69 % 1002,3 hPa 0,0 l/m 0,0 km/h (0 Bft) W-SW 247 4,2 C 9,6 C
21.04.2012 23:21 9,6 C 69 % 1002,4 hPa 0,0 l/m 0,0 km/h (0 Bft) W-SW 247 4,2 C 9,6 C
21.04.2012 23:26 9,5 C 70 % 1002,3 hPa 0,0 l/m 1,4 km/h (1 Bft) W-SW 247 4,3 C 9,5 C
21.04.2012 23:31 9,3 C 70 % 1002,5 hPa 0,0 l/m 0,0 km/h (0 Bft) S-SW 202 4,1 C 9,3 C
21.04.2012 23:36 9,3 C 70 % 1002,3 hPa 0,0 l/m 0,0 km/h (0 Bft) S-SW 202 4,1 C 9,3 C
21.04.2012 23:41 9,2 C 70 % 1002,3 hPa 0,0 l/m 0,0 km/h (0 Bft) W-SW 247 4,0 C 9,2 C
21.04.2012 23:46 9,1 C 70 % 1002,4 hPa 0,0 l/m 0,0 km/h (0 Bft) S-SW 202 3,9 C 9,1 C
21.04.2012 23:51 8,9 C 70 % 1002,5 hPa 0,0 l/m 0,0 km/h (0 Bft) S-SW 202 3,7 C 8,9 C
21.04.2012 23:56 8,9 C 70 % 1002,5 hPa 0,0 l/m 0,0 km/h (0 Bft) S-SW 202 3,7 C 8,9 C
_ Min-Zeit 06:36 14:36 00:06 - 00:41 - - 18:46 06:36
Minimum _ 7,8 C 41 % 999,4 hPa - 0,0 km/h (0 Bft) - - 3,1 C 7,8 C
_ Max-Zeit 14:56 06:36 23:31 00:01 14:16 - - 09:46 14:56
Maximum _ 18,5 C 76 % 1002,5 hPa 0,0 l/m 25,2 km/h
S (4 Bft)
- - 6,3 C 18,5 C
Durchschnitt _ 12,5 C 59 % 1001,0 hPa #0,0 l/m 6,5 km/h (2 Bft) S-SO - 4,5 C 12,5 C
(c) by David Heller